Latest Weather Observations for Cape Willoughby

IDS60801

Issued at 8:31 am CDT Sunday 2 October 2016 (issued every 30 minutes, with the page automatically refreshed every 10 minutes)

About weather observations | Map of weather stations | Latest weather observations for SA | Other Formats
Station Details ID: 022803 Name: CAPE WILLOUGHBY Lat: -35.84 Lon: 138.13 Height: 55.0 m
Data from the previous 72 hours. | See also: Recent months at Cape Willoughby
Date/Time
CDT
Temp
°C
App
Temp
°C
Dew
Point
°C
Rel
Hum
%
Delta-T
°C
Wind Press
QNH
hPa
Press
MSL
hPa
Rain since
9am
mm
Dir  Spd
km/h
Gust
km/h
Spd
kts
Gust
kts
02/08:30am 15.2 12.5 8.9 66 3.2 WNW 13 19 7 10 995.6 995.6 0.0
02/08:00am 15.2 10.3 8.4 64 3.5 NW 24 30 13 16 994.6 994.6 0.0
02/07:30am 15.9 9.7 7.7 58 4.1 NW 30 35 16 19 994.5 994.5 0.0
02/07:00am 16.0 9.2 7.5 57 4.2 NNW 33 44 18 24 994.1 994.0 0.0
02/06:30am 16.1 9.4 7.3 56 4.4 NNW 32 43 17 23 994.2 994.2 0.0
02/06:00am 16.0 10.0 7.2 56 4.4 NNW 28 35 15 19 994.3 994.3 0.0
02/05:30am 16.1 9.2 7.1 55 4.5 NNW 33 46 18 25 994.0 993.9 0.0
02/05:00am 15.8 8.9 8.8 63 3.6 NNW 35 50 19 27 994.0 993.9 0.0
02/04:30am 15.6 8.0 9.1 65 3.4 NNW 39 48 21 26 994.3 994.3 0.0
02/04:00am 15.6 8.0 9.1 65 3.3 NNW 39 50 21 27 994.8 994.8 0.0
02/03:30am 15.7 7.1 8.9 64 3.5 NNW 44 56 24 30 995.0 995.0 0.0
02/03:00am 16.3 7.6 7.8 57 4.3 NNW 43 56 23 30 995.5 995.5 0.0
02/01:31am 15.9 8.4 7.9 59 4.0 NNW 37 57 20 31 995.8 995.8 0.0
02/01:30am 16.0 8.6 8.2 60 4.0 NNW 37 50 20 27 995.8 995.8 0.0
02/01:19am 15.8 7.6 8.3 61 3.8 NNW 41 59 22 32 995.9 995.9 0.0
02/01:00am 15.9 6.5 8.9 63 3.6 N 48 59 26 32 995.8 995.8 0.0
02/12:59am 15.9 6.2 8.9 63 3.6 N 50 59 27 32 995.8 995.8 0.0
02/12:30am 16.7 3.6 8.4 58 4.3 N 67 78 36 42 995.7 995.7 0.0
02/12:10am 18.3 5.1 6.5 46 5.9 N 65 85 35 46 995.4 995.4 0.0
02/12:00am 18.0 6.6 7.4 50 5.4 N 57 65 31 35 995.6 995.6 0.0
 
Date/Time
CDT
Temp
°C
App
Temp
°C
Dew
Point
°C
Rel
Hum
%
Delta-T
°C
Wind Press
QNH
hPa
Press
MSL
hPa
Rain since
9am
mm
Dir  Spd
km/h
Gust
km/h
Spd
kts
Gust
kts
01/11:30pm 19.0 6.6 6.5 44 6.3 N 61 72 33 39 995.3 995.3 0.0
01/11:06pm 19.0 7.9 6.2 43 6.4 N 54 76 29 41 995.7 995.7 0.0
01/11:00pm 18.5 8.7 7.0 47 5.8 N 48 59 26 32 996.2 996.2 0.0
01/10:44pm 17.7 11.7 8.6 55 4.7 NNE 30 48 16 26 997.0 997.0 0.0
01/10:30pm 16.3 11.9 8.8 61 3.9 NE 22 28 12 15 997.7 997.7 0.0
01/10:00pm 17.5 10.7 7.5 52 5.0 NE 33 52 18 28 998.1 998.1 0.0
01/09:30pm 18.4 8.2 6.9 47 5.8 N 50 61 27 33 998.1 998.1 0.0
01/09:00pm 17.6 7.2 7.9 53 5.0 N 52 65 28 35 998.3 998.3 0.0
01/08:47pm 17.3 8.8 8.7 57 4.4 NNE 43 59 23 32 998.7 998.7 0.0
01/08:30pm 16.3 10.1 9.3 63 3.7 NE 32 41 17 22 999.5 999.5 0.0
01/08:00pm 15.4 9.3 9.7 69 3.0 NE 32 37 17 20 1000.1 1000.1 0.0
01/07:30pm 15.6 9.2 9.3 66 3.3 NNE 33 41 18 22 1000.7 1000.7 0.0
01/07:00pm 16.3 8.1 8.0 58 4.2 NNE 41 48 22 26 1000.4 1000.4 0.0
01/06:30pm 15.9 8.6 7.1 56 4.4 NNE 35 43 19 23 1000.2 1000.2 0.0
01/06:00pm 15.1 9.7 8.1 63 3.5 N 26 33 14 18 1000.8 1000.8 0.0
01/05:30pm 14.8 8.4 8.7 67 3.1 N 32 33 17 18 1001.0 1001.0 0.0
01/05:00pm 15.1 9.0 9.7 70 2.8 N 32 37 17 20 1001.2 1001.2 0.0
01/04:30pm 14.8 8.7 10.6 76 2.2 N 33 37 18 20 1001.5 1001.4 0.0
01/04:00pm 15.0 9.6 10.8 76 2.2 N 30 35 16 19 1001.9 1001.8 0.0
01/03:30pm 14.7 9.5 10.3 75 2.3 N 28 33 15 18 1002.4 1002.3 0.0
01/03:00pm 14.7 8.6 10.5 76 2.2 N 33 39 18 21 1002.9 1002.8 0.0
01/02:30pm 14.4 6.3 10.2 76 2.2 N 43 48 23 26 1003.5 1003.4 0.0
01/02:00pm 13.8 5.4 9.6 76 2.2 N 44 52 24 28 1004.1 1004.0 0.0
01/01:30pm 14.5 6.3 9.7 73 2.5 N 43 50 23 27 1004.4 1004.3 0.0
01/01:00pm 13.1 4.8 9.2 77 2.0 N 43 48 23 26 1004.7 1004.6 0.0
01/12:30pm 13.0 5.4 8.9 76 2.1 N 39 48 21 26 1005.1 1005.0 0.0
01/12:00pm 13.9 6.3 8.9 72 2.5 N 39 44 21 24 1005.5 1005.4 0.0
01/11:30am 13.4 5.0 7.4 67 2.9 NNW 41 52 22 28 1006.1 1006.0 0.0
01/11:00am 12.9 4.8 7.1 68 2.8 NNW 39 48 21 26 1006.5 1006.4 0.0
01/10:30am 13.0 5.7 7.0 67 2.9 NNW 35 52 19 28 1006.6 1006.5 0.0
01/10:00am 13.3 6.2 8.0 70 2.6 N 35 44 19 24 1006.4 1006.3 0.0
01/09:30am 13.4 8.0 7.8 69 2.8 N 26 33 14 18 1006.6 1006.5 0.0
01/09:00am 12.7 9.2 7.4 70 2.6 NNW 15 20 8 11 1007.0 1007.0 0.2
01/08:30am 11.5 8.0 5.6 67 2.7 W 13 19 7 10 1007.2 1007.2 0.2
01/08:00am 10.7 7.9 5.3 69 2.5 W 9 15 5 8 1006.7 1006.7 0.2
01/07:30am 9.9 7.4 4.9 71 2.3 W 7 9 4 5 1007.2 1007.2 0.2
01/07:00am 9.4 6.6 5.2 75 1.9 W 9 13 5 7 1007.1 1007.1 0.2
01/06:30am 9.0 6.1 4.8 75 1.9 W 9 13 5 7 1006.9 1006.9 0.2
01/06:00am 9.1 5.8 4.3 72 2.1 WSW 11 17 6 9 1006.6 1006.6 0.2
01/05:30am 9.3 4.9 4.5 72 2.1 WSW 17 22 9 12 1006.5 1006.5 0.2
01/05:00am 9.0 4.6 4.8 75 1.9 WNW 17 22 9 12 1006.7 1006.7 0.2
01/04:30am 9.3 4.2 4.3 71 2.2 W 20 28 11 15 1006.5 1006.5 0.2
01/04:00am 9.3 3.9 4.7 73 2.1 WNW 22 28 12 15 1006.5 1006.5 0.2
01/03:30am 9.4 4.5 5.2 75 1.9 WNW 20 28 11 15 1006.3 1006.3 0.2
01/03:00am 9.5 4.6 5.3 75 1.9 WNW 20 28 11 15 1006.2 1006.2 0.2
01/02:30am 9.5 4.7 5.7 77 1.7 WNW 20 28 11 15 1006.1 1006.1 0.2
01/02:00am 9.5 5.4 6.0 79 1.6 W 17 22 9 12 1006.2 1006.2 0.2
01/01:30am 9.4 6.2 6.7 83 1.3 WNW 13 19 7 10 1006.4 1006.4 0.2
01/01:00am 9.7 4.7 6.6 81 1.5 W 22 28 12 15 1006.4 1006.4 0.2
01/12:30am 9.3 6.2 7.4 88 0.9 WNW 13 20 7 11 1006.5 1006.5 0.2
01/12:00am 9.4 4.6 7.3 87 1.0 W 22 30 12 16 1006.4 1006.4 0.2
 
Date/Time
CDT
Temp
°C
App
Temp
°C
Dew
Point
°C
Rel
Hum
%
Delta-T
°C
Wind Press
QNH
hPa
Press
MSL
hPa
Rain since
9am
mm
Dir  Spd
km/h
Gust
km/h
Spd
kts
Gust
kts
30/11:30pm 9.0 5.6 7.5 90 0.7 WNW 15 22 8 12 1006.4 1006.4 0.2
30/11:00pm 9.0 5.1 7.3 89 0.8 W 17 20 9 11 1006.3 1006.3 0.2
30/10:30pm 9.3 4.6 7.6 89 0.8 WNW 22 28 12 15 1006.3 1006.3 0.2
30/10:00pm 9.8 5.6 8.1 89 0.8 WNW 20 28 11 15 1006.6 1006.6 0.2
30/09:30pm 9.7 5.6 7.8 88 0.9 W 19 24 10 13 1006.6 1006.6 0.2
30/09:00pm 9.9 5.0 8.3 90 0.8 WNW 24 33 13 18 1006.5 1006.5 0.2
30/08:30pm 10.3 7.2 8.7 90 0.8 WNW 15 24 8 13 1006.3 1006.3 0.2
30/08:00pm 10.3 6.8 8.7 90 0.8 WNW 17 22 9 12 1006.2 1006.2 0.2
30/07:30pm 10.6 7.8 8.7 88 0.9 W 13 20 7 11 1006.0 1006.0 0.2
30/07:00pm 10.7 5.9 8.8 88 0.9 WSW 24 37 13 20 1005.6 1005.6 0.2
30/06:30pm 10.7 5.8 8.6 87 1.0 WSW 24 32 13 17 1005.3 1005.3 0.2
30/06:00pm 10.9 4.6 8.8 87 1.0 WSW 32 43 17 23 1005.2 1005.2 0.2
30/05:32pm 11.1 4.6 9.0 87 1.0 WSW 33 54 18 29 1004.9 1004.9 0.2
30/05:30pm 11.1 4.2 8.8 86 1.1 WSW 35 54 19 29 1004.8 1004.8 0.2
30/05:27pm 11.4 4.9 8.8 84 1.3 SW 33 54 18 29 1004.7 1004.7 0.2
30/05:00pm 11.5 3.5 9.1 85 1.2 SW 41 54 22 29 1004.3 1004.2 0.2
30/04:30pm 11.6 3.2 9.0 84 1.3 SW 43 57 23 31 1004.2 1004.1 0.2
30/04:00pm 11.5 4.0 9.6 88 1.0 WSW 39 50 21 27 1004.1 1004.0 0.2
30/03:30pm 11.9 3.4 9.1 83 1.4 SW 44 61 24 33 1003.7 1003.6 0.2
30/03:27pm 12.2 4.1 8.7 79 1.7 SW 41 61 22 33 1003.6 1003.5 0.2
30/03:00pm 12.5 4.0 9.3 81 1.6 SW 44 57 24 31 1003.7 1003.6 0.2
30/02:30pm 13.0 5.4 8.9 76 2.1 SW 39 50 21 27 1003.6 1003.5 0.2
30/02:00pm 12.6 3.2 8.7 77 2.0 SW 48 61 26 33 1003.5 1003.4 0.2
30/01:30pm 12.8 2.7 8.9 77 2.0 SW 52 65 28 35 1003.2 1003.1 0.2
30/01:00pm 13.4 3.8 9.3 76 2.1 SW 50 65 27 35 1003.1 1003.0 0.2
30/12:30pm 13.1 4.3 9.4 78 1.9 SW 46 65 25 35 1003.4 1003.3 0.2
30/12:07pm 12.3 2.6 9.0 80 1.7 SW 50 72 27 39 1003.3 1003.2 0.2
30/12:00pm 12.6 2.9 9.2 80 1.7 SW 50 67 27 36 1003.2 1003.1 0.2
30/11:49am 12.8 4.1 9.8 82 1.5 SW 46 65 25 35 1003.3 1003.2 0.2
30/11:30am 13.1 4.5 10.3 83 1.5 SW 46 65 25 35 1003.1 1003.0 0.2
30/11:00am 12.4 3.4 8.9 79 1.8 SW 46 63 25 34 1002.9 1002.8 0.2
30/10:32am 11.9 3.4 9.1 83 1.4 SW 44 65 24 35 1002.5 1002.4 0.0
30/10:30am 12.4 3.9 9.4 82 1.5 SW 44 57 24 31 1002.6 1002.5 0.0
30/10:00am 12.9 2.9 9.2 78 1.9 SW 52 63 28 34 1002.1 1002.0 0.0
30/09:30am 12.8 3.2 9.3 79 1.8 SW 50 69 27 37 1001.5 1001.4 0.0
30/09:24am 12.9 3.8 9.7 81 1.6 SW 48 67 26 36 1001.6 1001.5 0.0
30/09:00am 12.6 3.0 9.6 82 1.5 SW 50 61 27 33 1001.1 1001.1 16.8
30/08:30am 12.0 3.3 9.9 87 1.1 SW 46 61 25 33 1000.9 1000.9 16.8
30/08:05am 12.2 2.7 9.8 85 1.2 SW 50 69 27 37 1000.6 1000.6 16.8
30/08:00am 12.0 1.3 9.4 84 1.3 SW 56 72 30 39 1000.5 1000.5 16.8
30/07:51am 12.1 2.7 10.0 87 1.1 SW 50 72 27 39 1000.2 1000.2 16.8
30/07:30am 12.0 1.4 10.1 88 1.0 SW 56 69 30 37 1000.0 1000.0 16.8
30/07:11am 12.3 2.5 10.0 86 1.2 SW 52 72 28 39 999.4 999.4 16.8
30/07:00am 12.2 3.2 10.1 87 1.1 SW 48 65 26 35 999.2 999.2 16.8
30/06:37am 12.3 4.2 10.9 91 0.7 SSW 44 72 24 39 999.0 999.0 16.8
30/06:35am 12.3 4.4 10.9 91 0.7 SW 43 72 23 39 998.8 998.8 16.8
30/06:31am 12.2 5.9 11.1 93 0.6 SW 35 56 19 30 998.9 998.9 16.6
30/06:30am 12.1 6.2 11.0 93 0.6 SW 33 50 18 27 999.0 999.0 16.6
30/06:00am 11.4 4.3 9.7 89 0.9 WSW 37 50 20 27 998.9 998.9 16.2
30/05:30am 12.0 6.0 8.8 81 1.6 WSW 30 46 16 25 998.4 998.4 16.0
30/05:00am 12.0 5.8 9.2 83 1.4 WSW 32 41 17 22 998.0 998.0 16.0
30/04:30am 11.7 5.9 9.3 85 1.2 WSW 30 37 16 20 998.0 998.0 16.0
30/04:00am 11.8 5.6 9.4 85 1.2 SW 32 48 17 26 997.8 997.8 16.0
30/03:30am 12.3 4.2 8.6 78 1.9 SW 41 52 22 28 997.0 997.0 16.0
30/03:00am 11.9 5.5 9.5 85 1.2 SW 33 43 18 23 996.9 996.9 16.0
30/02:30am 11.9 3.4 9.3 84 1.3 SSW 44 54 24 29 996.4 996.4 16.0
30/02:00am 11.3 4.3 8.3 82 1.5 SSW 35 52 19 28 996.1 996.1 16.0
30/01:33am 12.0 6.4 8.8 81 1.6 SSW 28 48 15 26 996.0 996.0 16.0
30/01:30am 12.1 6.2 8.9 81 1.6 S 30 43 16 23 996.0 996.0 16.0
30/01:00am 11.7 3.1 8.0 78 1.8 S 43 61 23 33 995.5 995.5 16.0
30/12:54am 12.1 4.8 8.6 79 1.7 S 37 56 20 30 995.4 995.4 16.0
30/12:30am 12.0 2.9 8.5 79 1.8 S 46 57 25 31 995.0 995.0 16.0
30/12:00am 11.6 4.7 9.0 84 1.3 S 35 46 19 25 994.7 994.7 16.0
 
Date/Time
CDT
Temp
°C
App
Temp
°C
Dew
Point
°C
Rel
Hum
%
Delta-T
°C
Wind Press
QNH
hPa
Press
MSL
hPa
Rain since
9am
mm
Dir  Spd
km/h
Gust
km/h
Spd
kts
Gust
kts
29/11:37pm 10.7 3.5 7.8 82 1.4 S 35 54 19 29 994.2 994.2 16.0
29/11:30pm 10.6 3.2 8.4 86 1.1 S 37 46 20 25 994.3 994.3 16.0
29/11:00pm 10.4 0.7 9.0 91 0.7 S 50 65 27 35 992.9 992.9 15.6
29/10:30pm 10.9 2.5 9.0 88 1.0 S 43 52 23 28 992.2 992.2 15.6
29/10:00pm 10.1 1.1 9.0 93 0.5 SSW 46 67 25 36 991.0 991.0 15.6
29/09:56pm 10.3 0.2 8.9 91 0.7 SW 52 69 28 37 990.8 990.8 15.4
29/09:55pm 10.5 0.1 9.1 91 0.7 SW 54 72 29 39 990.7 990.7 15.4
29/09:30pm 11.1 0.3 10.0 93 0.6 WSW 57 80 31 43 990.7 990.7 13.4
29/09:00pm 11.0 -0.2 9.9 93 0.6 WSW 59 83 32 45 990.5 990.5 12.8
29/08:30pm 11.0 -1.0 9.6 91 0.7 WSW 63 85 34 46 990.5 990.5 11.4
29/08:02pm 11.0 0.2 9.9 93 0.6 WSW 57 82 31 44 990.3 990.3 9.6
29/08:00pm 10.9 0.1 9.8 93 0.6 WSW 57 74 31 40 990.3 990.3 9.4
29/07:30pm 11.3 -1.2 9.4 88 1.0 WSW 65 93 35 50 989.7 989.7 7.4
29/07:05pm 11.1 -0.9 9.7 91 0.7 WSW 63 83 34 45 989.4 989.4 7.2
29/07:00pm 11.1 -0.8 9.9 92 0.6 WSW 63 82 34 44 989.3 989.3 7.2
29/06:30pm 11.1 -2.0 9.9 92 0.6 WSW 69 91 37 49 988.5 988.4 6.4
29/06:00pm 11.1 -0.5 9.9 92 0.6 WSW 61 85 33 46 988.1 988.0 5.8
29/05:30pm 11.1 -0.6 9.5 90 0.8 WSW 61 82 33 44 987.6 987.5 4.2
29/05:02pm 11.8 -0.1 10.0 89 0.9 WSW 63 85 34 46 986.7 986.6 3.2
29/05:00pm 11.7 -0.2 9.9 89 0.9 WSW 63 80 34 43 986.8 986.7 3.2
29/04:50pm 11.7 -0.2 10.1 90 0.8 WSW 63 83 34 45 986.8 986.7 2.8
29/04:41pm 11.7 0.9 9.9 89 0.9 WSW 57 83 31 45 986.5 986.4 2.8
29/04:35pm 11.7 3.7 10.3 91 0.7 SW 43 76 23 41 986.5 986.4 2.6
29/04:30pm 11.5 5.9 10.2 92 0.7 WSW 30 59 16 32 986.6 986.5 2.4
29/04:29pm 11.4 6.5 10.1 92 0.7 WSW 26 54 14 29 986.7 986.6 2.4
29/04:00pm 11.2 7.3 9.5 89 0.9 WSW 20 28 11 15 986.7 986.6 0.6
29/03:30pm 11.6 5.6 8.8 83 1.4 WSW 30 43 16 23 986.2 986.1 0.0
29/03:00pm 13.0 7.0 7.2 68 2.9 SW 28 39 15 21 986.0 985.9 0.0
29/02:30pm 13.1 6.8 7.3 68 2.9 SW 30 35 16 19 985.5 985.4 0.0
29/02:00pm 12.8 7.3 7.5 70 2.6 SW 26 33 14 18 985.2 985.1 0.0
29/01:30pm 13.0 8.0 7.9 71 2.6 SW 24 32 13 17 984.9 984.8 0.0
29/01:00pm 13.3 6.8 8.0 70 2.6 SW 32 39 17 21 984.9 984.8 0.0
29/12:30pm 13.2 7.0 7.9 70 2.7 SW 30 37 16 20 984.8 984.7 0.0
29/12:00pm 13.3 6.6 8.2 71 2.6 SW 33 43 18 23 984.7 984.6 0.0
29/11:30am 13.1 4.8 7.8 70 2.6 SW 41 50 22 27 984.4 984.3 0.0
29/11:00am 12.8 4.7 8.5 75 2.1 SW 41 54 22 29 983.9 983.8 0.0
29/10:30am 12.6 4.2 8.9 78 1.9 SW 43 54 23 29 983.4 983.3 0.0
29/10:00am 12.1 3.6 9.1 82 1.5 SW 44 61 24 33 982.3 982.3 0.0
29/09:30am 12.0 3.0 9.0 82 1.5 SW 46 59 25 32 981.6 981.6 0.0
29/09:00am 11.2 2.7 9.3 88 1.0 SW 44 57 24 31 980.8 980.8 13.6
29/08:30am 9.9 3.0 9.0 94 0.5 SSW 35 44 19 24 980.1 980.1 13.6
29/08:00am 10.2 4.6 8.8 91 0.7 SW 28 35 15 19 979.6 979.6 12.0

Other Formats:

Comma delimited format used in spreadsheet applications
http://www.bom.gov.au/fwo/IDS60801/IDS60801.94822.axf

JavaScript Object Notation format (JSON) in row-major order
http://www.bom.gov.au/fwo/IDS60801/IDS60801.94822.json